Terminal Aerodrome Forecast
Issued by NWS Flagstaff, AZ

Home | Current Version | Previous Version | Text Only | Print | Product List | Glossary On
Versions: 1 2 3 4 5 6 7 8 9 10 11 12 13 14 15 16
000
FTUS45 KFGZ 020500
TAFFLG
TAF
KFLG 020530Z 0206/0306 VRB03KT P6SM FEW120 BKN150
      TEMPO 0206/0208 11012KT FEW100 BKN120
     FM021800 VRB05KT P6SM VCTS SCT080CB BKN120
      TEMPO 0218/0222 5SM TSRA BKN060CB
     FM022300 VRB05KT P6SM BKN080 BKN100=

USA.gov is the U.S. government's official web portal to all federal, state and local government web resources and services.